Time;durP1;ratioP1;P1;durP2;ratioP2;P2;SDS_P1;SDS_P2;PMS_P1;PMS_P2;Temp;Humidity;BMP_temperature;BMP_pressure;BME280_temperature;BME280_humidity;BME280_pressure;Samples;Min_cycle;Max_cycle;Signal;HPM_P1;HPM_P2
2022/09/09 00:01:37;;;;;;;5.18;1.13;;;17.10;99.90;;;;;;5035680;28;20038;-82
2022/09/09 00:04:21;;;;;;;1.55;0.95;;;17.10;99.90;;;;;;5025777;28;20116;-83
2022/09/09 00:07:04;;;;;;;3.13;1.05;;;17.10;99.90;;;;;;5033294;28;20022;-83
2022/09/09 00:09:50;;;;;;;3.50;1.02;;;17.20;99.90;;;;;;5028329;28;20053;-83
2022/09/09 00:12:36;;;;;;;2.28;0.80;;;17.30;99.90;;;;;;5031056;28;20383;-83
2022/09/09 00:15:05;;;;;;;1.85;0.80;;;17.30;99.90;;;;;;5029111;28;20124;-83
2022/09/09 00:17:40;;;;;;;2.45;0.82;;;17.40;99.90;;;;;;5030413;28;20483;-83
2022/09/09 00:20:30;;;;;;;1.38;0.68;;;17.40;99.90;;;;;;5026074;28;20063;-82
2022/09/09 00:23:32;;;;;;;3.97;0.98;;;17.40;99.90;;;;;;5032347;28;20021;-83
2022/09/09 00:26:38;;;;;;;4.07;1.67;;;17.50;99.90;;;;;;5036969;28;20026;-83
2022/09/09 00:29:24;;;;;;;3.10;1.00;;;17.60;99.90;;;;;;5028627;28;20045;-83
2022/09/09 00:31:59;;;;;;;5.05;1.08;;;17.70;99.90;;;;;;5012742;28;20048;-83
2022/09/09 00:34:27;;;;;;;1.48;1.02;;;17.60;99.90;;;;;;5027275;28;20112;-82
2022/09/09 00:36:56;;;;;;;3.40;0.82;;;17.70;99.90;;;;;;5033571;28;20087;-82
2022/09/09 00:39:36;;;;;;;2.88;1.10;;;17.70;99.90;;;;;;5018197;28;20062;-83
2022/09/09 00:42:20;;;;;;;3.63;1.52;;;17.60;99.90;;;;;;5048856;28;20486;-82
2022/09/09 00:45:09;;;;;;;3.27;1.23;;;17.40;99.90;;;;;;5031525;28;20458;-82
2022/09/09 00:47:52;;;;;;;2.40;0.77;;;17.50;99.90;;;;;;5032320;28;20037;-83
2022/09/09 00:50:40;;;;;;;2.45;1.00;;;17.40;99.90;;;;;;5024488;28;20579;-83
2022/09/09 00:53:12;;;;;;;2.40;0.77;;;17.30;99.90;;;;;;5028774;28;20049;-82
2022/09/09 00:55:48;;;;;;;5.00;1.23;;;17.40;99.90;;;;;;5022959;28;20076;-83
2022/09/09 00:58:14;;;;;;;4.28;1.05;;;17.40;99.90;;;;;;5026317;28;20029;-83
2022/09/09 01:00:43;;;;;;;3.45;1.00;;;17.40;99.90;;;;;;5030532;28;20029;-83
2022/09/09 01:03:34;;;;;;;4.93;1.27;;;17.40;99.90;;;;;;5022617;28;20104;-82
2022/09/09 01:06:38;;;;;;;2.47;0.90;;;17.30;99.90;;;;;;5030927;28;20077;-83
2022/09/09 01:09:16;;;;;;;1.48;0.73;;;17.20;99.90;;;;;;5013383;28;20021;-82
2022/09/09 01:12:06;;;;;;;3.97;0.90;;;17.20;99.90;;;;;;5023344;28;20026;-83
2022/09/09 01:14:36;;;;;;;14.02;0.90;;;17.20;99.90;;;;;;5049228;28;20118;-82
2022/09/09 01:17:10;;;;;;;3.72;1.33;;;17.30;99.90;;;;;;5032458;28;20030;-82
2022/09/09 01:19:48;;;;;;;4.38;1.13;;;17.20;99.90;;;;;;5027500;28;20152;-82
2022/09/09 01:22:21;;;;;;;0.73;0.73;;;17.10;99.90;;;;;;5031606;28;20049;-83
2022/09/09 01:25:13;;;;;;;5.40;0.90;;;17.00;99.90;;;;;;5024569;28;20026;-82
2022/09/09 01:27:42;;;;;;;2.67;1.05;;;17.10;99.90;;;;;;5049251;28;20048;-82
2022/09/09 01:30:22;;;;;;;4.95;1.13;;;17.20;99.90;;;;;;5032404;28;20025;-82
2022/09/09 01:32:58;;;;;;;2.15;0.80;;;17.10;99.90;;;;;;5027137;28;20029;-82
2022/09/09 01:35:37;;;;;;;2.45;1.00;;;17.00;99.90;;;;;;5030136;28;20441;-81
2022/09/09 01:38:04;;;;;;;2.00;1.00;;;16.90;99.90;;;;;;5016306;28;20053;-82
2022/09/09 01:40:29;;;;;;;6.07;1.10;;;16.90;99.90;;;;;;5031448;28;20037;-83
2022/09/09 01:43:07;;;;;;;5.57;1.52;;;16.90;99.90;;;;;;5025096;28;20022;-82
2022/09/09 01:45:33;;;;;;;2.78;1.05;;;16.80;99.90;;;;;;5014997;28;20047;-82
2022/09/09 01:48:02;;;;;;;5.82;1.42;;;16.80;99.90;;;;;;5027862;28;20044;-82
2022/09/09 01:50:34;;;;;;;2.92;0.95;;;16.90;99.90;;;;;;5030870;28;20074;-82
2022/09/09 01:53:02;;;;;;;1.30;0.80;;;16.90;99.90;;;;;;5027223;28;20084;-82
2022/09/09 01:55:54;;;;;;;4.22;1.20;;;16.80;99.90;;;;;;5024835;28;20026;-83
2022/09/09 01:58:46;;;;;;;5.93;1.55;;;16.90;99.90;;;;;;5044365;28;20080;-83
2022/09/09 02:01:36;;;;;;;3.17;0.80;;;16.80;99.90;;;;;;5032055;28;20036;-83
2022/09/09 02:04:12;;;;;;;2.47;1.13;;;16.90;99.90;;;;;;5024967;28;20055;-82
2022/09/09 02:06:40;;;;;;;7.78;1.50;;;17.10;99.90;;;;;;5017469;28;20040;-83
2022/09/09 02:09:11;;;;;;;2.97;1.23;;;16.90;99.90;;;;;;5025172;28;20017;-82
2022/09/09 02:11:37;;;;;;;6.13;1.35;;;16.90;99.90;;;;;;5031103;28;20079;-82
2022/09/09 02:14:16;;;;;;;3.97;0.93;;;17.00;99.90;;;;;;5025478;28;20492;-83
2022/09/09 02:16:49;;;;;;;2.63;0.80;;;17.00;99.90;;;;;;5031137;28;20021;-83
2022/09/09 02:19:25;;;;;;;2.80;1.13;;;16.90;99.90;;;;;;5029188;28;20049;-82
2022/09/09 02:21:57;;;;;;;2.22;0.80;;;16.90;99.90;;;;;;5023997;28;20033;-82
2022/09/09 02:24:23;;;;;;;3.08;1.00;;;17.00;99.90;;;;;;5022104;28;20036;-82
2022/09/09 02:27:04;;;;;;;4.03;1.35;;;17.00;99.90;;;;;;5026117;28;20030;-83
2022/09/09 02:29:42;;;;;;;2.05;1.55;;;17.00;99.90;;;;;;5029443;28;20024;-82
2022/09/09 02:32:20;;;;;;;3.22;1.08;;;17.00;99.90;;;;;;5028340;28;20091;-83
2022/09/09 02:35:11;;;;;;;3.60;0.80;;;17.00;99.90;;;;;;5025775;28;20034;-83
2022/09/09 02:37:47;;;;;;;1.48;0.90;;;17.00;99.90;;;;;;5026182;28;20030;-83
2022/09/09 02:40:15;;;;;;;6.28;1.55;;;16.90;99.90;;;;;;5026084;28;20128;-82
2022/09/09 02:42:43;;;;;;;3.28;1.15;;;16.90;99.90;;;;;;5030785;28;20029;-83
2022/09/09 02:45:15;;;;;;;3.30;1.00;;;16.80;99.90;;;;;;5026150;28;20041;-83
2022/09/09 02:47:54;;;;;;;3.05;1.30;;;16.80;99.90;;;;;;5032183;28;20021;-83
2022/09/09 02:50:26;;;;;;;6.78;1.13;;;16.80;99.90;;;;;;5032406;28;20071;-81
2022/09/09 02:53:21;;;;;;;2.38;0.90;;;16.90;99.90;;;;;;5026975;28;20113;-82
2022/09/09 02:56:46;;;;;;;8.52;1.15;;;16.80;99.90;;;;;;5035885;28;20112;-82
2022/09/09 02:59:20;;;;;;;2.83;1.05;;;16.90;99.90;;;;;;5031507;28;20439;-83
2022/09/09 03:01:47;;;;;;;3.13;1.23;;;16.90;99.90;;;;;;5033040;28;20029;-82
2022/09/09 03:04:13;;;;;;;3.03;0.93;;;16.90;99.90;;;;;;5029466;28;20026;-83
2022/09/09 03:06:39;;;;;;;2.97;1.08;;;16.90;99.90;;;;;;5036615;28;20109;-82
2022/09/09 03:09:05;;;;;;;3.22;1.10;;;17.00;99.90;;;;;;5035315;28;20037;-82
2022/09/09 03:11:31;;;;;;;4.88;0.93;;;17.00;99.90;;;;;;5027900;28;20780;-82
2022/09/09 03:14:31;;;;;;;2.85;1.40;;;17.00;99.90;;;;;;5029965;28;20025;-82
2022/09/09 03:17:24;;;;;;;5.65;1.00;;;16.90;99.90;;;;;;5026410;28;20037;-83
2022/09/09 03:20:10;;;;;;;3.15;0.90;;;16.80;99.90;;;;;;5029045;28;20030;-82
2022/09/09 03:22:50;;;;;;;1.70;1.13;;;16.80;99.90;;;;;;5026136;28;20509;-82
2022/09/09 03:25:56;;;;;;;2.83;0.85;;;16.90;99.90;;;;;;5013613;28;20038;-83
2022/09/09 03:29:00;;;;;;;5.93;1.13;;;16.90;99.90;;;;;;5033129;28;20057;-83
2022/09/09 03:34:22;;;;;;;1.13;0.60;;;16.90;99.90;;;;;;5032501;28;20040;-82
2022/09/09 03:36:50;;;;;;;5.95;0.90;;;17.00;99.90;;;;;;5032270;28;20018;-82
2022/09/09 03:39:16;;;;;;;1.35;0.88;;;17.10;99.90;;;;;;5024560;28;20030;-83
2022/09/09 03:41:45;;;;;;;2.17;0.95;;;17.10;99.90;;;;;;5028997;28;20087;-83
2022/09/09 03:44:10;;;;;;;2.00;1.08;;;17.10;99.90;;;;;;5024670;28;20034;-82
2022/09/09 03:46:43;;;;;;;3.20;1.17;;;17.10;99.90;;;;;;5032241;28;20022;-83
2022/09/09 03:49:10;;;;;;;3.53;1.87;;;17.20;99.90;;;;;;5026360;28;20111;-83
2022/09/09 03:51:40;;;;;;;2.65;1.05;;;17.20;99.90;;;;;;5033354;28;20276;-82
2022/09/09 03:54:32;;;;;;;3.55;1.10;;;17.20;99.90;;;;;;5030411;28;20038;-83
2022/09/09 03:56:58;;;;;;;4.70;1.10;;;17.10;99.90;;;;;;5044473;28;20032;-83
2022/09/09 03:59:27;;;;;;;2.70;1.08;;;17.10;99.90;;;;;;5030778;28;20100;-81
2022/09/09 04:01:54;;;;;;;4.38;1.17;;;17.10;99.90;;;;;;5026253;28;20064;-82
2022/09/09 04:04:20;;;;;;;4.20;1.05;;;17.10;99.90;;;;;;5029167;28;20025;-83
2022/09/09 04:06:48;;;;;;;3.15;1.15;;;17.10;99.90;;;;;;5021201;28;20156;-83
2022/09/09 04:09:15;;;;;;;2.47;1.13;;;17.20;99.90;;;;;;5030602;28;20635;-82
2022/09/09 04:11:41;;;;;;;3.55;0.90;;;17.20;99.90;;;;;;5032669;28;20030;-83
2022/09/09 04:14:08;;;;;;;3.08;1.40;;;17.00;99.90;;;;;;5027903;28;20025;-82
2022/09/09 04:16:37;;;;;;;6.65;1.10;;;17.00;99.90;;;;;;5029977;28;20030;-83
2022/09/09 04:19:04;;;;;;;2.45;0.95;;;17.00;99.90;;;;;;5032706;28;20470;-83
2022/09/09 04:21:30;;;;;;;5.03;2.08;;;17.00;99.90;;;;;;5033666;28;20034;-83
2022/09/09 04:23:56;;;;;;;3.17;1.00;;;16.90;99.90;;;;;;5026613;28;20037;-83
2022/09/09 04:26:22;;;;;;;4.30;1.73;;;17.00;99.90;;;;;;5031400;28;20037;-83
2022/09/09 04:28:48;;;;;;;3.35;1.42;;;17.00;99.90;;;;;;5024575;28;20018;-82
2022/09/09 04:31:23;;;;;;;2.55;1.20;;;17.10;99.90;;;;;;5023176;28;20034;-81
2022/09/09 04:33:50;;;;;;;2.72;1.05;;;17.30;99.90;;;;;;5025340;28;20037;-83
2022/09/09 04:36:18;;;;;;;0.88;0.52;;;17.20;99.90;;;;;;5028014;28;20389;-83
2022/09/09 04:38:44;;;;;;;4.25;1.02;;;17.20;99.90;;;;;;5038870;28;20057;-83
2022/09/09 04:41:11;;;;;;;2.47;1.00;;;17.30;99.90;;;;;;5031166;28;20042;-83
2022/09/09 04:43:37;;;;;;;4.07;0.93;;;17.30;99.90;;;;;;5033430;28;20031;-82
2022/09/09 04:46:17;;;;;;;1.73;0.93;;;17.20;99.90;;;;;;5028384;28;20794;-83
2022/09/09 04:48:43;;;;;;;2.83;0.80;;;17.20;99.90;;;;;;5022420;28;20060;-83
2022/09/09 04:51:47;;;;;;;6.00;0.90;;;17.10;99.90;;;;;;5033427;28;20080;-83
2022/09/09 04:54:25;;;;;;;3.42;1.08;;;17.10;99.90;;;;;;5023646;28;20103;-81
2022/09/09 04:56:51;;;;;;;4.30;1.00;;;17.10;99.90;;;;;;5022151;28;20025;-83
2022/09/09 04:59:16;;;;;;;7.47;2.08;;;17.00;99.90;;;;;;5030470;28;20022;-82
2022/09/09 05:01:42;;;;;;;5.22;1.25;;;16.80;99.90;;;;;;5030891;28;20394;-82
2022/09/09 05:04:08;;;;;;;4.90;1.10;;;17.00;99.90;;;;;;5031910;28;20029;-82
2022/09/09 05:06:36;;;;;;;4.03;1.00;;;17.00;99.90;;;;;;5033292;28;20024;-83
2022/09/09 05:09:02;;;;;;;4.65;1.10;;;17.10;99.90;;;;;;5029680;28;20328;-83
2022/09/09 05:11:36;;;;;;;3.75;1.35;;;17.00;99.90;;;;;;5021978;28;20478;-82
2022/09/09 05:14:03;;;;;;;3.78;0.93;;;16.90;99.90;;;;;;5028928;28;20493;-83
2022/09/09 05:16:29;;;;;;;4.43;1.20;;;17.00;99.90;;;;;;5025428;28;20091;-83
2022/09/09 05:18:56;;;;;;;5.20;1.15;;;17.00;99.90;;;;;;5027302;28;20048;-83
2022/09/09 05:21:26;;;;;;;5.90;1.08;;;16.80;99.90;;;;;;5029048;28;20025;-83
2022/09/09 05:23:52;;;;;;;5.47;1.50;;;16.80;99.90;;;;;;5033387;28;20053;-83
2022/09/09 05:26:20;;;;;;;6.30;1.00;;;16.80;99.90;;;;;;5022990;28;20033;-83
2022/09/09 05:28:46;;;;;;;2.05;1.00;;;16.80;99.90;;;;;;5021275;28;20026;-82
2022/09/09 05:31:14;;;;;;;5.57;1.23;;;16.90;99.90;;;;;;5029486;28;20036;-83
2022/09/09 05:33:42;;;;;;;1.00;0.65;;;16.80;99.90;;;;;;5023704;28;20028;-83
2022/09/09 05:36:13;;;;;;;3.90;1.05;;;16.80;99.90;;;;;;5028244;28;20394;-82
2022/09/09 05:38:39;;;;;;;6.32;1.83;;;16.80;99.90;;;;;;5024573;28;20390;-83
2022/09/09 05:41:05;;;;;;;2.55;1.42;;;16.80;99.90;;;;;;5026485;28;20028;-83
2022/09/09 05:43:32;;;;;;;4.35;1.13;;;16.70;99.90;;;;;;5025016;28;20060;-83
2022/09/09 05:46:07;;;;;;;2.03;1.05;;;16.70;99.90;;;;;;5029035;28;20482;-83
2022/09/09 05:48:37;;;;;;;6.82;2.08;;;16.70;99.90;;;;;;5032273;28;20438;-83
2022/09/09 05:51:03;;;;;;;4.28;1.27;;;16.60;99.90;;;;;;5020982;28;20712;-83
2022/09/09 05:53:34;;;;;;;5.40;1.10;;;16.70;99.90;;;;;;5018598;28;20120;-81
2022/09/09 05:56:05;;;;;;;5.03;1.25;;;16.70;99.90;;;;;;5042362;28;20394;-83
2022/09/09 05:58:32;;;;;;;7.53;3.25;;;16.70;99.90;;;;;;5023847;28;20040;-82
2022/09/09 06:01:28;;;;;;;3.13;1.13;;;16.70;99.90;;;;;;5026009;28;20478;-83
2022/09/09 06:03:54;;;;;;;3.10;1.23;;;16.80;99.90;;;;;;5028997;28;20100;-83
2022/09/09 06:06:26;;;;;;;3.63;1.38;;;16.80;99.90;;;;;;5029422;28;20041;-82
2022/09/09 06:08:53;;;;;;;3.95;1.02;;;16.70;99.90;;;;;;5027899;28;20072;-82
2022/09/09 06:11:25;;;;;;;2.05;0.93;;;16.70;99.90;;;;;;5032675;28;20022;-83
2022/09/09 06:13:53;;;;;;;8.25;2.72;;;16.70;99.90;;;;;;5031702;28;20033;-82
2022/09/09 06:16:23;;;;;;;2.50;1.20;;;16.80;99.90;;;;;;5029295;28;20025;-83
2022/09/09 06:18:50;;;;;;;3.20;1.25;;;16.70;99.90;;;;;;5021400;28;20026;-83
2022/09/09 06:21:30;;;;;;;4.50;0.98;;;16.70;99.90;;;;;;5024952;28;20040;-83
2022/09/09 06:23:56;;;;;;;2.13;0.90;;;16.70;99.90;;;;;;5028868;28;20030;-83
2022/09/09 06:26:40;;;;;;;3.50;0.85;;;16.90;99.90;;;;;;5029094;28;20026;-83
2022/09/09 06:29:07;;;;;;;4.50;2.60;;;17.00;99.90;;;;;;5025561;28;20018;-83
2022/09/09 06:31:36;;;;;;;3.90;0.88;;;16.90;99.90;;;;;;5023787;28;20014;-83
2022/09/09 06:34:05;;;;;;;4.70;1.55;;;17.00;99.90;;;;;;5030208;28;20026;-83
2022/09/09 06:36:33;;;;;;;3.47;1.15;;;16.90;99.90;;;;;;5031928;28;20038;-82
2022/09/09 06:38:59;;;;;;;4.78;1.40;;;16.90;99.90;;;;;;5029137;28;20022;-83
2022/09/09 06:41:28;;;;;;;4.97;1.20;;;16.90;99.90;;;;;;5021141;28;20029;-82
2022/09/09 06:43:57;;;;;;;6.53;1.17;;;17.00;99.90;;;;;;5026939;28;20026;-82
2022/09/09 06:46:28;;;;;;;3.95;0.95;;;17.00;99.90;;;;;;5025364;28;20020;-82
2022/09/09 06:48:57;;;;;;;7.70;2.13;;;17.10;99.90;;;;;;5022127;28;20076;-82
2022/09/09 06:51:25;;;;;;;4.28;1.10;;;17.20;99.90;;;;;;5027194;28;20109;-82
2022/09/09 06:53:53;;;;;;;4.15;1.35;;;17.30;99.90;;;;;;5020800;28;20041;-80
2022/09/09 06:56:42;;;;;;;4.57;1.40;;;17.20;99.90;;;;;;5028185;28;20029;-82
2022/09/09 06:59:11;;;;;;;5.85;1.15;;;17.20;99.90;;;;;;5024506;28;20112;-83
2022/09/09 07:01:49;;;;;;;7.00;1.60;;;17.20;99.90;;;;;;5029196;28;20032;-82
2022/09/09 07:04:14;;;;;;;8.00;1.42;;;17.30;99.90;;;;;;5048440;28;20034;-81
2022/09/09 07:06:46;;;;;;;3.13;1.17;;;17.40;99.90;;;;;;5027102;28;20102;-82
2022/09/09 07:09:14;;;;;;;3.30;1.30;;;17.40;99.90;;;;;;5022029;28;20032;-82
2022/09/09 07:11:59;;;;;;;4.28;1.08;;;17.40;99.90;;;;;;5029916;28;20049;-82
2022/09/09 07:14:25;;;;;;;6.43;1.30;;;17.40;99.90;;;;;;5023661;28;20022;-82
2022/09/09 07:16:57;;;;;;;3.05;1.00;;;17.50;99.90;;;;;;5027044;28;20563;-82
2022/09/09 07:19:25;;;;;;;6.97;1.75;;;17.60;99.90;;;;;;5023275;28;20106;-81
2022/09/09 07:21:51;;;;;;;5.03;2.35;;;17.70;99.90;;;;;;5025173;28;20457;-82
2022/09/09 07:24:17;;;;;;;4.05;1.08;;;17.60;99.90;;;;;;5026242;28;20097;-81
2022/09/09 07:26:43;;;;;;;4.50;0.90;;;17.70;99.90;;;;;;5028552;28;20470;-82
2022/09/09 07:29:13;;;;;;;3.33;1.50;;;17.80;99.90;;;;;;5030880;28;20036;-81
2022/09/09 07:31:39;;;;;;;8.15;1.58;;;17.80;99.90;;;;;;5046074;28;20018;-81
2022/09/09 07:34:05;;;;;;;3.63;1.13;;;17.90;99.90;;;;;;5028373;28;20029;-81
2022/09/09 07:36:33;;;;;;;5.25;0.85;;;17.90;99.90;;;;;;5023487;28;20033;-82
2022/09/09 07:39:02;;;;;;;5.25;1.20;;;18.00;99.90;;;;;;5019936;28;20121;-82
2022/09/09 07:41:30;;;;;;;2.38;1.02;;;18.10;99.90;;;;;;5029633;28;20371;-81
2022/09/09 07:43:56;;;;;;;3.20;1.20;;;18.10;99.90;;;;;;5018596;28;20032;-81
2022/09/09 07:46:25;;;;;;;4.82;1.17;;;18.20;99.90;;;;;;5026311;28;20101;-82
2022/09/09 07:48:55;;;;;;;3.78;1.33;;;18.20;99.90;;;;;;5028008;28;20017;-82
2022/09/09 07:51:27;;;;;;;2.95;1.08;;;18.30;99.90;;;;;;5028276;28;20017;-82
2022/09/09 07:53:57;;;;;;;5.35;1.33;;;18.30;99.90;;;;;;5021496;28;20068;-82
2022/09/09 07:56:24;;;;;;;2.35;1.10;;;18.30;99.90;;;;;;5024154;28;20049;-82
2022/09/09 07:58:52;;;;;;;8.48;1.05;;;18.40;99.90;;;;;;5019976;28;20022;-82
2022/09/09 08:01:23;;;;;;;2.55;0.95;;;18.40;99.90;;;;;;5025851;28;20026;-82
2022/09/09 08:04:01;;;;;;;5.95;1.02;;;18.40;99.90;;;;;;5025535;28;20049;-82
2022/09/09 08:06:29;;;;;;;10.20;1.30;;;18.40;99.90;;;;;;5020684;28;20120;-82
2022/09/09 08:08:55;;;;;;;4.07;1.30;;;18.50;99.60;;;;;;5019748;28;20022;-82
2022/09/09 08:11:22;;;;;;;3.55;1.00;;;18.40;99.20;;;;;;5032748;28;20041;-82
2022/09/09 08:13:49;;;;;;;2.47;0.85;;;18.40;99.50;;;;;;5023993;28;20032;-81
2022/09/09 08:16:27;;;;;;;3.03;1.27;;;18.30;99.10;;;;;;5020271;28;20104;-81
2022/09/09 08:18:53;;;;;;;2.17;0.90;;;18.30;99.20;;;;;;5027086;28;20036;-83
2022/09/09 08:21:23;;;;;;;6.47;1.10;;;18.30;99.80;;;;;;5024718;28;20112;-81
2022/09/09 08:23:52;;;;;;;4.65;1.30;;;18.20;99.50;;;;;;5025954;28;20057;-81
2022/09/09 08:26:31;;;;;;;3.88;1.10;;;18.10;99.40;;;;;;5031623;28;20674;-82
2022/09/09 08:28:59;;;;;;;5.35;1.23;;;18.10;99.30;;;;;;5034282;28;20113;-81
2022/09/09 08:31:27;;;;;;;4.85;1.13;;;18.10;98.80;;;;;;5032934;28;20017;-82
2022/09/09 08:33:54;;;;;;;4.10;1.67;;;18.10;98.60;;;;;;5024296;28;20057;-82
2022/09/09 08:36:23;;;;;;;7.50;1.13;;;18.10;98.70;;;;;;5028508;28;20029;-79
2022/09/09 08:38:51;;;;;;;2.25;1.17;;;18.10;98.80;;;;;;5018794;28;20022;-82
2022/09/09 08:41:35;;;;;;;7.35;1.25;;;18.10;98.80;;;;;;5028996;28;20040;-80
2022/09/09 08:44:07;;;;;;;4.82;1.40;;;18.10;98.50;;;;;;5049934;28;20037;-81
2022/09/09 08:46:55;;;;;;;4.05;1.15;;;18.20;99.00;;;;;;5020856;28;20279;-82
2022/09/09 08:49:53;;;;;;;6.80;2.08;;;18.20;98.80;;;;;;5045762;28;20117;-81
2022/09/09 08:52:28;;;;;;;3.35;1.08;;;18.30;98.60;;;;;;5020461;28;20463;-80
2022/09/09 08:55:03;;;;;;;5.15;1.45;;;18.30;98.60;;;;;;5025220;28;20029;-82
2022/09/09 08:57:32;;;;;;;5.72;1.30;;;18.40;98.90;;;;;;5047306;28;20033;-80
2022/09/09 08:59:59;;;;;;;4.13;1.00;;;18.40;98.60;;;;;;5028660;28;20025;-82
2022/09/09 09:02:44;;;;;;;6.95;1.40;;;18.50;97.70;;;;;;5027714;28;20029;-82
2022/09/09 09:05:27;;;;;;;4.18;1.42;;;18.50;97.50;;;;;;5033318;28;20025;-82
2022/09/09 09:08:20;;;;;;;5.95;1.10;;;18.50;95.90;;;;;;5025920;28;20097;-83
2022/09/09 09:10:53;;;;;;;1.42;1.08;;;18.50;95.60;;;;;;5048794;28;20021;-81
2022/09/09 09:13:56;;;;;;;4.45;1.33;;;18.60;95.90;;;;;;5032460;28;20025;-82
2022/09/09 09:16:32;;;;;;;14.98;1.33;;;18.60;95.60;;;;;;5031250;28;20056;-83
2022/09/09 09:18:59;;;;;;;6.78;1.38;;;18.50;96.30;;;;;;5028283;28;20077;-82
2022/09/09 09:21:33;;;;;;;5.45;1.02;;;18.60;96.50;;;;;;5031493;28;20502;-82
2022/09/09 09:24:00;;;;;;;;;;;18.60;96.50;;;;;;5025683;28;20041;-82
2022/09/09 09:26:34;;;;;;;7.00;2.33;;;18.60;97.30;;;;;;5032056;28;19909;-82
2022/09/09 09:29:14;;;;;;;3.03;1.55;;;18.50;97.10;;;;;;5024991;28;20109;-81
2022/09/09 09:31:52;;;;;;;4.50;0.90;;;18.60;97.90;;;;;;5030150;28;20030;-82
2022/09/09 09:34:18;;;;;;;4.57;1.13;;;18.60;96.90;;;;;;5021447;28;20495;-82
2022/09/09 09:36:53;;;;;;;8.80;2.08;;;18.80;96.30;;;;;;5031684;28;20435;-81
2022/09/09 09:39:27;;;;;;;3.22;0.90;;;19.00;96.60;;;;;;5022196;28;20552;-82
2022/09/09 09:41:54;;;;;;;3.95;0.93;;;19.10;95.60;;;;;;5032989;28;20030;-80
2022/09/09 09:44:27;;;;;;;9.52;1.80;;;19.20;95.30;;;;;;5023429;28;20124;-82
2022/09/09 09:47:04;;;;;;;3.65;1.08;;;19.10;95.30;;;;;;5020209;28;20022;-81
2022/09/09 09:49:33;;;;;;;5.07;1.23;;;19.00;94.90;;;;;;5018312;28;20108;-81
2022/09/09 09:52:03;;;;;;;1.60;0.88;;;19.00;95.20;;;;;;5021305;28;20475;-81
2022/09/09 09:54:32;;;;;;;2.88;0.80;;;18.90;95.20;;;;;;5030166;28;20029;-80
2022/09/09 09:57:12;;;;;;;3.35;1.10;;;18.80;94.50;;;;;;5025522;28;20108;-82
2022/09/09 09:59:39;;;;;;;3.65;1.00;;;18.80;94.60;;;;;;5025787;28;20056;-82
2022/09/09 10:02:43;;;;;;;4.18;1.00;;;18.80;94.30;;;;;;5023633;28;20056;-81
2022/09/09 10:05:20;;;;;;;2.83;1.02;;;18.70;94.70;;;;;;5021182;28;20710;-82
2022/09/09 10:07:46;;;;;;;5.10;1.08;;;18.70;94.20;;;;;;5030385;28;20021;-80
2022/09/09 10:10:24;;;;;;;4.35;1.10;;;18.80;94.70;;;;;;5025028;28;20047;-80
2022/09/09 10:13:06;;;;;;;3.58;0.82;;;18.80;94.80;;;;;;5026333;28;20018;-81
2022/09/09 10:15:46;;;;;;;1.67;0.70;;;18.90;94.70;;;;;;5028049;28;20021;-81
2022/09/09 10:18:36;;;;;;;1.98;0.70;;;18.90;94.40;;;;;;5017738;28;20034;-81
2022/09/09 10:21:29;;;;;;;4.35;1.05;;;18.90;93.90;;;;;;5026510;28;20030;-82
2022/09/09 10:24:22;;;;;;;9.50;1.23;;;19.00;93.90;;;;;;5041357;28;20029;-80
2022/09/09 10:27:25;;;;;;;5.88;1.65;;;19.10;93.90;;;;;;5033802;28;20040;-81
2022/09/09 10:30:21;;;;;;;5.78;1.02;;;19.40;94.10;;;;;;5028784;28;20018;-82
2022/09/09 10:33:22;;;;;;;2.97;0.88;;;19.70;93.60;;;;;;5018327;28;20021;-82
2022/09/09 10:36:08;;;;;;;6.00;1.40;;;19.80;93.90;;;;;;5027601;28;20379;-81
2022/09/09 10:38:50;;;;;;;5.00;1.15;;;19.80;93.30;;;;;;5031983;28;20021;-81
2022/09/09 10:41:24;;;;;;;3.15;1.00;;;19.70;92.90;;;;;;5025305;28;20025;-81
2022/09/09 10:44:15;;;;;;;2.05;0.65;;;19.60;93.60;;;;;;5025745;28;20033;-81
2022/09/09 10:46:47;;;;;;;2.38;1.02;;;19.50;92.90;;;;;;5024006;28;20092;-82
2022/09/09 10:49:27;;;;;;;2.67;0.88;;;19.40;92.70;;;;;;5030719;28;20068;-81
2022/09/09 10:51:55;;;;;;;1.83;0.75;;;19.30;93.20;;;;;;5022469;28;20379;-82
2022/09/09 10:54:39;;;;;;;3.35;1.90;;;19.20;92.70;;;;;;5026817;28;20034;-82
2022/09/09 10:57:49;;;;;;;2.15;0.82;;;19.20;93.10;;;;;;5023757;28;20021;-81
2022/09/09 11:00:19;;;;;;;3.45;0.70;;;19.30;93.00;;;;;;5012484;28;20033;-81
2022/09/09 11:02:52;;;;;;;2.55;0.98;;;19.20;93.30;;;;;;5009564;28;20026;-82
2022/09/09 11:05:29;;;;;;;1.90;0.85;;;19.30;92.80;;;;;;5011922;28;20414;-81
2022/09/09 11:08:08;;;;;;;1.20;0.90;;;19.20;92.20;;;;;;5031056;28;20036;-81
2022/09/09 11:10:52;;;;;;;5.40;1.15;;;19.30;92.60;;;;;;5026305;28;20032;-82
2022/09/09 11:13:20;;;;;;;;;;;19.30;92.80;;;;;;5025496;28;20034;-83
2022/09/09 11:15:51;;;;;;;8.48;1.13;;;19.40;93.30;;;;;;5030361;28;19905;-82
2022/09/09 11:18:23;;;;;;;3.03;1.00;;;19.40;93.30;;;;;;5034614;28;20029;-82
2022/09/09 11:20:54;;;;;;;5.15;1.45;;;19.50;92.50;;;;;;5024800;28;20029;-82
2022/09/09 11:23:32;;;;;;;5.72;0.80;;;19.60;92.70;;;;;;5025623;28;20021;-82
2022/09/09 11:26:03;;;;;;;0.90;0.65;;;19.80;93.10;;;;;;5031460;28;20394;-83
2022/09/09 11:29:03;;;;;;;2.50;0.80;;;19.80;92.60;;;;;;5032736;28;20021;-82
2022/09/09 11:32:02;;;;;;;5.80;1.42;;;19.90;92.90;;;;;;5030701;28;20426;-82
2022/09/09 11:34:28;;;;;;;4.45;0.95;;;20.00;92.60;;;;;;5027125;28;20038;-83
2022/09/09 11:37:29;;;;;;;4.82;1.25;;;20.10;92.70;;;;;;5031402;28;20040;-82
2022/09/09 11:40:04;;;;;;;4.53;1.25;;;20.10;91.90;;;;;;5023443;28;20072;-82
2022/09/09 11:42:30;;;;;;;3.42;0.90;;;20.20;93.00;;;;;;5032225;28;20044;-82
2022/09/09 11:44:57;;;;;;;3.63;0.80;;;20.20;92.60;;;;;;5026567;28;20025;-82
2022/09/09 11:47:31;;;;;;;5.55;0.82;;;20.10;92.60;;;;;;5023055;28;20040;-83
2022/09/09 11:50:14;;;;;;;1.17;0.75;;;20.20;92.50;;;;;;5025326;28;20022;-82
2022/09/09 11:52:49;;;;;;;5.80;0.73;;;20.10;91.70;;;;;;5034464;28;20024;-82
2022/09/09 11:55:26;;;;;;;1.80;1.15;;;19.90;91.20;;;;;;5030757;28;20034;-82
2022/09/09 11:58:25;;;;;;;1.35;0.55;;;19.90;92.20;;;;;;5030239;28;20764;-84
2022/09/09 12:00:52;;;;;;;3.60;1.13;;;19.90;92.40;;;;;;4996767;28;20037;-82
2022/09/09 12:03:52;;;;;;;4.32;1.08;;;19.90;92.40;;;;;;5023571;28;20030;-81
2022/09/09 12:07:02;;;;;;;1.80;0.73;;;19.90;92.10;;;;;;5031024;28;20496;-83
2022/09/09 12:09:46;;;;;;;1.25;0.82;;;19.80;91.60;;;;;;5044190;28;20044;-83
2022/09/09 12:12:11;;;;;;;;;;;19.80;91.30;;;;;;5031443;28;20097;-83
2022/09/09 12:14:43;;;;;;;2.67;0.75;;;19.80;91.40;;;;;;5027795;28;19996;-83
2022/09/09 12:17:23;;;;;;;1.75;0.90;;;19.80;91.40;;;;;;5048578;28;20138;-84
2022/09/09 12:20:20;;;;;;;7.72;0.88;;;19.80;91.70;;;;;;5031636;28;20065;-84
2022/09/09 12:22:59;;;;;;;2.42;0.95;;;19.80;91.70;;;;;;5035679;28;20044;-82
2022/09/09 12:25:56;;;;;;;2.33;0.68;;;19.90;91.70;;;;;;5027688;28;20030;-83
2022/09/09 12:28:32;;;;;;;3.58;0.68;;;19.90;92.00;;;;;;5046285;28;20077;-83
2022/09/09 12:31:35;;;;;;;1.65;0.80;;;19.90;92.00;;;;;;5029231;28;20013;-84
2022/09/09 12:34:15;;;;;;;2.85;0.95;;;19.90;92.10;;;;;;5040766;28;20536;-81
2022/09/09 12:36:45;;;;;;;3.00;0.70;;;19.90;91.80;;;;;;5028329;28;20033;-81
2022/09/09 12:39:34;;;;;;;3.38;0.88;;;19.90;92.30;;;;;;5031469;28;20167;-82
2022/09/09 12:42:00;;;;;;;1.60;0.80;;;19.90;92.70;;;;;;5027999;28;20033;-83
2022/09/09 12:44:29;;;;;;;11.65;0.98;;;19.90;92.70;;;;;;5030286;28;20400;-82
2022/09/09 12:46:59;;;;;;;4.00;0.90;;;19.90;91.60;;;;;;5027950;28;20029;-83
2022/09/09 12:49:36;;;;;;;3.08;1.00;;;19.90;91.60;;;;;;5025444;28;20025;-83
2022/09/09 12:52:26;;;;;;;2.20;0.65;;;19.90;91.60;;;;;;5031164;28;20540;-81
2022/09/09 12:54:53;;;;;;;3.17;1.15;;;19.90;91.70;;;;;;5029708;28;20037;-81
2022/09/09 12:57:23;;;;;;;4.45;1.15;;;19.80;91.50;;;;;;5030821;28;20033;-81
2022/09/09 12:59:58;;;;;;;2.17;0.88;;;19.80;91.30;;;;;;5025047;28;20030;-83
2022/09/09 13:02:27;;;;;;;3.63;0.70;;;19.70;91.40;;;;;;5029121;28;20516;-82
2022/09/09 13:04:54;;;;;;;2.38;0.70;;;19.70;91.80;;;;;;5023184;28;20032;-81
2022/09/09 13:07:21;;;;;;;1.95;0.70;;;19.70;91.10;;;;;;5023958;28;20026;-81
2022/09/09 13:09:48;;;;;;;2.10;0.85;;;19.70;91.20;;;;;;5030710;28;20109;-82
2022/09/09 13:12:18;;;;;;;3.03;1.27;;;19.70;91.50;;;;;;5021915;28;20045;-82
2022/09/09 13:14:48;;;;;;;1.10;0.75;;;19.70;91.70;;;;;;5046389;28;20032;-81
2022/09/09 13:17:25;;;;;;;4.43;1.10;;;19.80;91.50;;;;;;5029097;28;20026;-81
2022/09/09 13:19:53;;;;;;;1.65;0.73;;;19.90;91.30;;;;;;5023372;28;20113;-82
2022/09/09 13:22:40;;;;;;;1.30;0.88;;;19.90;90.70;;;;;;5029433;28;20034;-82
2022/09/09 13:25:10;;;;;;;3.33;1.55;;;19.90;90.90;;;;;;5030380;28;20026;-82
2022/09/09 13:27:39;;;;;;;2.72;0.88;;;19.90;91.10;;;;;;5021005;28;20390;-83
2022/09/09 13:30:25;;;;;;;0.90;0.70;;;19.80;90.90;;;;;;5019969;28;20022;-81
2022/09/09 13:33:12;;;;;;;3.58;0.93;;;19.70;92.00;;;;;;5028946;28;20020;-82